sensor_id;sensor_type;location;lat;lon;timestamp;temperature;humidity
44671;DHT22;48397;53.016;-2.260;2022-08-19T00:02:16;18.00;99.90
44671;DHT22;48397;53.016;-2.260;2022-08-19T00:04:44;18.00;99.90
44671;DHT22;48397;53.016;-2.260;2022-08-19T00:07:14;18.00;99.90
44671;DHT22;48397;53.016;-2.260;2022-08-19T00:09:44;18.00;99.90
44671;DHT22;48397;53.016;-2.260;2022-08-19T00:12:12;18.00;99.90
44671;DHT22;48397;53.016;-2.260;2022-08-19T00:14:39;18.00;99.90
44671;DHT22;48397;53.016;-2.260;2022-08-19T00:17:08;18.00;99.90
44671;DHT22;48397;53.016;-2.260;2022-08-19T00:19:38;18.00;99.90
44671;DHT22;48397;53.016;-2.260;2022-08-19T00:22:06;17.90;99.90
44671;DHT22;48397;53.016;-2.260;2022-08-19T00:24:35;17.90;99.90
44671;DHT22;48397;53.016;-2.260;2022-08-19T00:27:05;17.00;99.90
44671;DHT22;48397;53.016;-2.260;2022-08-19T00:29:53;17.90;99.90
44671;DHT22;48397;53.016;-2.260;2022-08-19T00:32:21;17.70;99.90
44671;DHT22;48397;53.016;-2.260;2022-08-19T00:34:50;17.60;99.90
44671;DHT22;48397;53.016;-2.260;2022-08-19T00:37:22;17.70;99.90
44671;DHT22;48397;53.016;-2.260;2022-08-19T00:39:50;17.60;99.90
44671;DHT22;48397;53.016;-2.260;2022-08-19T00:42:20;17.40;99.90
44671;DHT22;48397;53.016;-2.260;2022-08-19T00:44:48;17.10;99.90
44671;DHT22;48397;53.016;-2.260;2022-08-19T00:47:16;16.90;99.90
44671;DHT22;48397;53.016;-2.260;2022-08-19T00:49:52;16.80;99.90
44671;DHT22;48397;53.016;-2.260;2022-08-19T00:52:27;16.60;99.90
44671;DHT22;48397;53.016;-2.260;2022-08-19T00:54:59;16.60;99.90
44671;DHT22;48397;53.016;-2.260;2022-08-19T00:57:30;16.50;99.90
44671;DHT22;48397;53.016;-2.260;2022-08-19T01:00:01;13.60;99.90
44671;DHT22;48397;53.016;-2.260;2022-08-19T01:02:32;16.30;99.90
44671;DHT22;48397;53.016;-2.260;2022-08-19T01:05:03;16.20;99.90
44671;DHT22;48397;53.016;-2.260;2022-08-19T01:07:33;16.20;99.90
44671;DHT22;48397;53.016;-2.260;2022-08-19T01:10:14;16.00;99.90
44671;DHT22;48397;53.016;-2.260;2022-08-19T01:12:44;16.00;99.90
44671;DHT22;48397;53.016;-2.260;2022-08-19T01:15:17;16.00;99.90
44671;DHT22;48397;53.016;-2.260;2022-08-19T01:17:46;15.90;99.90
44671;DHT22;48397;53.016;-2.260;2022-08-19T01:20:20;15.90;99.90
44671;DHT22;48397;53.016;-2.260;2022-08-19T01:22:54;15.90;99.90
44671;DHT22;48397;53.016;-2.260;2022-08-19T01:25:58;15.80;99.90
44671;DHT22;48397;53.016;-2.260;2022-08-19T01:28:25;15.80;99.90
44671;DHT22;48397;53.016;-2.260;2022-08-19T01:31:09;15.70;99.90
44671;DHT22;48397;53.016;-2.260;2022-08-19T01:33:54;15.70;99.90
44671;DHT22;48397;53.016;-2.260;2022-08-19T01:36:43;15.60;99.90
44671;DHT22;48397;53.016;-2.260;2022-08-19T01:39:21;15.60;99.90
44671;DHT22;48397;53.016;-2.260;2022-08-19T01:41:50;15.50;99.90
44671;DHT22;48397;53.016;-2.260;2022-08-19T01:44:20;15.50;99.90
44671;DHT22;48397;53.016;-2.260;2022-08-19T01:46:51;15.50;99.90
44671;DHT22;48397;53.016;-2.260;2022-08-19T01:49:21;15.40;99.90
44671;DHT22;48397;53.016;-2.260;2022-08-19T01:51:50;15.40;99.90
44671;DHT22;48397;53.016;-2.260;2022-08-19T01:54:19;15.30;99.90
44671;DHT22;48397;53.016;-2.260;2022-08-19T01:57:00;15.20;99.90
44671;DHT22;48397;53.016;-2.260;2022-08-19T01:59:29;15.20;99.90
44671;DHT22;48397;53.016;-2.260;2022-08-19T02:01:57;15.20;99.90
44671;DHT22;48397;53.016;-2.260;2022-08-19T02:04:25;15.20;99.90
44671;DHT22;48397;53.016;-2.260;2022-08-19T02:09:21;15.20;99.90
44671;DHT22;48397;53.016;-2.260;2022-08-19T02:11:49;15.20;99.90
44671;DHT22;48397;53.016;-2.260;2022-08-19T02:14:17;15.20;99.90
44671;DHT22;48397;53.016;-2.260;2022-08-19T02:16:44;15.20;99.90
44671;DHT22;48397;53.016;-2.260;2022-08-19T02:19:12;15.20;99.90
44671;DHT22;48397;53.016;-2.260;2022-08-19T02:21:40;15.20;99.90
44671;DHT22;48397;53.016;-2.260;2022-08-19T02:24:08;15.20;99.90
44671;DHT22;48397;53.016;-2.260;2022-08-19T02:26:36;15.10;99.90
44671;DHT22;48397;53.016;-2.260;2022-08-19T02:29:03;15.20;99.90
44671;DHT22;48397;53.016;-2.260;2022-08-19T02:31:31;15.20;99.90
44671;DHT22;48397;53.016;-2.260;2022-08-19T02:33:59;15.20;99.90
44671;DHT22;48397;53.016;-2.260;2022-08-19T02:36:27;15.20;99.90
44671;DHT22;48397;53.016;-2.260;2022-08-19T02:38:56;15.20;99.90
44671;DHT22;48397;53.016;-2.260;2022-08-19T02:41:32;15.20;99.90
44671;DHT22;48397;53.016;-2.260;2022-08-19T02:44:01;15.20;99.90
44671;DHT22;48397;53.016;-2.260;2022-08-19T02:46:49;15.20;99.90
44671;DHT22;48397;53.016;-2.260;2022-08-19T02:49:19;15.20;99.90
44671;DHT22;48397;53.016;-2.260;2022-08-19T02:51:47;15.20;99.90
44671;DHT22;48397;53.016;-2.260;2022-08-19T02:54:15;15.20;99.90
44671;DHT22;48397;53.016;-2.260;2022-08-19T02:56:44;15.10;99.90
44671;DHT22;48397;53.016;-2.260;2022-08-19T02:59:12;15.10;99.90
44671;DHT22;48397;53.016;-2.260;2022-08-19T03:01:41;15.00;99.90
44671;DHT22;48397;53.016;-2.260;2022-08-19T03:04:12;14.90;99.90
44671;DHT22;48397;53.016;-2.260;2022-08-19T03:06:42;14.70;99.90
44671;DHT22;48397;53.016;-2.260;2022-08-19T03:09:11;14.70;99.90
44671;DHT22;48397;53.016;-2.260;2022-08-19T03:11:39;14.60;99.90
44671;DHT22;48397;53.016;-2.260;2022-08-19T03:14:08;14.40;99.90
44671;DHT22;48397;53.016;-2.260;2022-08-19T03:16:46;14.30;99.90
44671;DHT22;48397;53.016;-2.260;2022-08-19T03:19:17;14.30;99.90
44671;DHT22;48397;53.016;-2.260;2022-08-19T03:21:45;14.20;99.90
44671;DHT22;48397;53.016;-2.260;2022-08-19T03:24:14;14.00;99.90
44671;DHT22;48397;53.016;-2.260;2022-08-19T03:26:45;14.10;99.90
44671;DHT22;48397;53.016;-2.260;2022-08-19T03:29:14;13.90;99.90
44671;DHT22;48397;53.016;-2.260;2022-08-19T03:32:00;13.60;99.90
44671;DHT22;48397;53.016;-2.260;2022-08-19T03:34:33;13.50;99.90
44671;DHT22;48397;53.016;-2.260;2022-08-19T03:37:05;13.30;99.90
44671;DHT22;48397;53.016;-2.260;2022-08-19T03:39:35;13.30;99.90
44671;DHT22;48397;53.016;-2.260;2022-08-19T03:42:03;13.10;99.90
44671;DHT22;48397;53.016;-2.260;2022-08-19T03:44:51;13.10;99.90
44671;DHT22;48397;53.016;-2.260;2022-08-19T03:49:47;12.90;99.90
44671;DHT22;48397;53.016;-2.260;2022-08-19T03:52:15;12.80;99.90
44671;DHT22;48397;53.016;-2.260;2022-08-19T03:54:42;12.60;99.90
44671;DHT22;48397;53.016;-2.260;2022-08-19T03:57:10;12.50;99.90
44671;DHT22;48397;53.016;-2.260;2022-08-19T03:59:38;12.40;99.90
44671;DHT22;48397;53.016;-2.260;2022-08-19T04:02:08;12.50;99.90
44671;DHT22;48397;53.016;-2.260;2022-08-19T04:04:42;9.00;99.90
44671;DHT22;48397;53.016;-2.260;2022-08-19T04:07:12;12.30;99.90
44671;DHT22;48397;53.016;-2.260;2022-08-19T04:09:43;12.40;99.90
44671;DHT22;48397;53.016;-2.260;2022-08-19T04:12:11;12.30;99.90
44671;DHT22;48397;53.016;-2.260;2022-08-19T04:14:39;12.30;99.90
44671;DHT22;48397;53.016;-2.260;2022-08-19T04:17:07;12.30;99.90
44671;DHT22;48397;53.016;-2.260;2022-08-19T04:19:35;12.30;99.90
44671;DHT22;48397;53.016;-2.260;2022-08-19T04:22:04;12.30;99.90
44671;DHT22;48397;53.016;-2.260;2022-08-19T04:24:32;12.30;99.90
44671;DHT22;48397;53.016;-2.260;2022-08-19T04:27:01;12.20;99.90
44671;DHT22;48397;53.016;-2.260;2022-08-19T04:29:30;12.20;99.90
44671;DHT22;48397;53.016;-2.260;2022-08-19T04:31:58;12.30;99.90
44671;DHT22;48397;53.016;-2.260;2022-08-19T04:34:36;12.30;99.90
44671;DHT22;48397;53.016;-2.260;2022-08-19T04:37:25;12.30;99.90
44671;DHT22;48397;53.016;-2.260;2022-08-19T04:40:05;12.30;99.90
44671;DHT22;48397;53.016;-2.260;2022-08-19T04:42:51;12.40;99.90
44671;DHT22;48397;53.016;-2.260;2022-08-19T04:45:21;12.30;99.90
44671;DHT22;48397;53.016;-2.260;2022-08-19T04:47:49;12.30;99.90
44671;DHT22;48397;53.016;-2.260;2022-08-19T04:50:39;12.30;99.90
44671;DHT22;48397;53.016;-2.260;2022-08-19T04:53:08;12.20;99.90
44671;DHT22;48397;53.016;-2.260;2022-08-19T04:55:39;12.30;99.90
44671;DHT22;48397;53.016;-2.260;2022-08-19T04:58:07;12.20;99.90
44671;DHT22;48397;53.016;-2.260;2022-08-19T05:00:38;12.20;99.90
44671;DHT22;48397;53.016;-2.260;2022-08-19T05:03:06;12.00;99.90
44671;DHT22;48397;53.016;-2.260;2022-08-19T05:05:39;12.00;99.90
44671;DHT22;48397;53.016;-2.260;2022-08-19T05:08:13;11.80;99.90
44671;DHT22;48397;53.016;-2.260;2022-08-19T05:10:41;11.70;99.90
44671;DHT22;48397;53.016;-2.260;2022-08-19T05:13:09;11.70;99.90
44671;DHT22;48397;53.016;-2.260;2022-08-19T05:15:38;11.60;99.90
44671;DHT22;48397;53.016;-2.260;2022-08-19T05:20:52;11.40;99.90
44671;DHT22;48397;53.016;-2.260;2022-08-19T05:23:39;11.30;99.90
44671;DHT22;48397;53.016;-2.260;2022-08-19T05:26:06;11.20;99.90
44671;DHT22;48397;53.016;-2.260;2022-08-19T05:28:36;11.10;99.90
44671;DHT22;48397;53.016;-2.260;2022-08-19T05:31:04;11.10;99.90
44671;DHT22;48397;53.016;-2.260;2022-08-19T05:33:32;11.10;99.90
44671;DHT22;48397;53.016;-2.260;2022-08-19T05:36:01;11.20;99.90
44671;DHT22;48397;53.016;-2.260;2022-08-19T05:38:29;11.20;99.90
44671;DHT22;48397;53.016;-2.260;2022-08-19T05:40:57;11.20;99.90
44671;DHT22;48397;53.016;-2.260;2022-08-19T05:43:25;11.20;99.90
44671;DHT22;48397;53.016;-2.260;2022-08-19T05:45:52;11.10;99.90
44671;DHT22;48397;53.016;-2.260;2022-08-19T05:48:20;11.10;99.90
44671;DHT22;48397;53.016;-2.260;2022-08-19T05:50:48;11.20;99.90
44671;DHT22;48397;53.016;-2.260;2022-08-19T05:53:17;11.20;99.90
44671;DHT22;48397;53.016;-2.260;2022-08-19T05:55:45;11.30;99.90
44671;DHT22;48397;53.016;-2.260;2022-08-19T05:58:13;11.40;99.90
44671;DHT22;48397;53.016;-2.260;2022-08-19T06:00:43;11.50;99.90
44671;DHT22;48397;53.016;-2.260;2022-08-19T06:03:11;11.50;99.90
44671;DHT22;48397;53.016;-2.260;2022-08-19T06:05:40;11.60;99.90
44671;DHT22;48397;53.016;-2.260;2022-08-19T06:08:18;11.60;99.90
44671;DHT22;48397;53.016;-2.260;2022-08-19T06:10:46;11.70;99.90
44671;DHT22;48397;53.016;-2.260;2022-08-19T06:13:14;11.90;99.90
44671;DHT22;48397;53.016;-2.260;2022-08-19T06:15:42;12.00;99.90
44671;DHT22;48397;53.016;-2.260;2022-08-19T06:20:40;12.40;99.90
44671;DHT22;48397;53.016;-2.260;2022-08-19T06:23:22;12.50;99.90
44671;DHT22;48397;53.016;-2.260;2022-08-19T06:25:50;12.70;99.90
44671;DHT22;48397;53.016;-2.260;2022-08-19T06:30:46;13.00;99.90
44671;DHT22;48397;53.016;-2.260;2022-08-19T06:33:14;13.10;99.90
44671;DHT22;48397;53.016;-2.260;2022-08-19T06:35:42;13.20;99.90
44671;DHT22;48397;53.016;-2.260;2022-08-19T06:38:14;13.30;99.90
44671;DHT22;48397;53.016;-2.260;2022-08-19T06:40:42;13.40;99.90
44671;DHT22;48397;53.016;-2.260;2022-08-19T06:43:15;13.50;99.90
44671;DHT22;48397;53.016;-2.260;2022-08-19T06:45:44;13.60;99.90
44671;DHT22;48397;53.016;-2.260;2022-08-19T06:48:14;13.60;99.90
44671;DHT22;48397;53.016;-2.260;2022-08-19T06:50:44;13.70;99.90
44671;DHT22;48397;53.016;-2.260;2022-08-19T06:53:12;13.80;99.90
44671;DHT22;48397;53.016;-2.260;2022-08-19T06:55:41;13.80;99.90
44671;DHT22;48397;53.016;-2.260;2022-08-19T07:00:36;13.90;99.90
44671;DHT22;48397;53.016;-2.260;2022-08-19T07:03:04;14.00;99.90
44671;DHT22;48397;53.016;-2.260;2022-08-19T07:05:40;14.00;99.90
44671;DHT22;48397;53.016;-2.260;2022-08-19T07:08:13;14.10;99.90
44671;DHT22;48397;53.016;-2.260;2022-08-19T07:10:45;14.10;99.90
44671;DHT22;48397;53.016;-2.260;2022-08-19T07:13:13;14.20;99.90
44671;DHT22;48397;53.016;-2.260;2022-08-19T07:15:40;14.30;99.90
44671;DHT22;48397;53.016;-2.260;2022-08-19T07:18:09;14.30;99.90
44671;DHT22;48397;53.016;-2.260;2022-08-19T07:20:40;14.30;99.90
44671;DHT22;48397;53.016;-2.260;2022-08-19T07:23:09;14.50;99.90
44671;DHT22;48397;53.016;-2.260;2022-08-19T07:25:43;14.50;99.90
44671;DHT22;48397;53.016;-2.260;2022-08-19T07:28:19;14.60;99.90
44671;DHT22;48397;53.016;-2.260;2022-08-19T07:30:52;14.60;99.90
44671;DHT22;48397;53.016;-2.260;2022-08-19T07:33:19;14.70;99.90
44671;DHT22;48397;53.016;-2.260;2022-08-19T07:35:48;14.80;99.90
44671;DHT22;48397;53.016;-2.260;2022-08-19T07:38:17;15.00;99.90
44671;DHT22;48397;53.016;-2.260;2022-08-19T07:40:45;15.00;99.90
44671;DHT22;48397;53.016;-2.260;2022-08-19T07:43:14;15.10;99.90
44671;DHT22;48397;53.016;-2.260;2022-08-19T07:45:45;15.20;99.90
44671;DHT22;48397;53.016;-2.260;2022-08-19T07:48:14;15.30;99.90
44671;DHT22;48397;53.016;-2.260;2022-08-19T07:50:42;15.30;99.90
44671;DHT22;48397;53.016;-2.260;2022-08-19T07:53:10;15.40;99.90
44671;DHT22;48397;53.016;-2.260;2022-08-19T07:55:39;15.50;99.90
44671;DHT22;48397;53.016;-2.260;2022-08-19T07:58:16;15.50;99.90
44671;DHT22;48397;53.016;-2.260;2022-08-19T08:00:46;15.70;99.90
44671;DHT22;48397;53.016;-2.260;2022-08-19T08:03:16;15.70;99.90
44671;DHT22;48397;53.016;-2.260;2022-08-19T08:05:44;15.80;99.90
44671;DHT22;48397;53.016;-2.260;2022-08-19T08:08:31;15.90;99.90
44671;DHT22;48397;53.016;-2.260;2022-08-19T08:10:59;15.90;99.90
44671;DHT22;48397;53.016;-2.260;2022-08-19T08:13:27;16.10;99.90
44671;DHT22;48397;53.016;-2.260;2022-08-19T08:15:56;16.00;99.90
44671;DHT22;48397;53.016;-2.260;2022-08-19T08:18:25;16.10;99.90
44671;DHT22;48397;53.016;-2.260;2022-08-19T08:20:57;16.40;99.90
44671;DHT22;48397;53.016;-2.260;2022-08-19T08:23:25;16.40;99.90
44671;DHT22;48397;53.016;-2.260;2022-08-19T08:25:56;16.40;99.90
44671;DHT22;48397;53.016;-2.260;2022-08-19T08:28:25;16.40;99.90
44671;DHT22;48397;53.016;-2.260;2022-08-19T08:30:56;16.40;99.90
44671;DHT22;48397;53.016;-2.260;2022-08-19T08:33:27;16.50;99.90
44671;DHT22;48397;53.016;-2.260;2022-08-19T08:36:05;16.50;99.90
44671;DHT22;48397;53.016;-2.260;2022-08-19T08:38:34;16.60;99.90
44671;DHT22;48397;53.016;-2.260;2022-08-19T08:41:17;16.70;99.90
44671;DHT22;48397;53.016;-2.260;2022-08-19T08:43:48;16.80;99.90
44671;DHT22;48397;53.016;-2.260;2022-08-19T08:51:32;17.30;99.90
44671;DHT22;48397;53.016;-2.260;2022-08-19T08:54:10;17.30;99.90
44671;DHT22;48397;53.016;-2.260;2022-08-19T08:56:41;17.60;99.90
44671;DHT22;48397;53.016;-2.260;2022-08-19T08:59:20;17.70;99.90
44671;DHT22;48397;53.016;-2.260;2022-08-19T09:01:49;17.80;99.90
44671;DHT22;48397;53.016;-2.260;2022-08-19T09:04:17;17.90;99.90
44671;DHT22;48397;53.016;-2.260;2022-08-19T09:07:13;17.80;99.90
44671;DHT22;48397;53.016;-2.260;2022-08-19T09:10:15;17.60;99.90
44671;DHT22;48397;53.016;-2.260;2022-08-19T09:12:58;17.50;99.90
44671;DHT22;48397;53.016;-2.260;2022-08-19T09:15:55;17.40;99.90
44671;DHT22;48397;53.016;-2.260;2022-08-19T09:18:24;17.40;99.90
44671;DHT22;48397;53.016;-2.260;2022-08-19T09:20:56;17.70;99.90
44671;DHT22;48397;53.016;-2.260;2022-08-19T09:23:24;17.70;99.90
44671;DHT22;48397;53.016;-2.260;2022-08-19T09:25:53;17.70;99.90
44671;DHT22;48397;53.016;-2.260;2022-08-19T09:28:21;19.30;99.90
44671;DHT22;48397;53.016;-2.260;2022-08-19T09:30:53;17.80;99.90
44671;DHT22;48397;53.016;-2.260;2022-08-19T09:33:21;17.80;99.90
44671;DHT22;48397;53.016;-2.260;2022-08-19T09:35:49;15.40;99.90
44671;DHT22;48397;53.016;-2.260;2022-08-19T09:38:21;17.60;99.90
44671;DHT22;48397;53.016;-2.260;2022-08-19T09:42:35;17.50;99.90
44671;DHT22;48397;53.016;-2.260;2022-08-19T09:45:03;17.60;99.90
44671;DHT22;48397;53.016;-2.260;2022-08-19T09:47:37;17.80;99.90
44671;DHT22;48397;53.016;-2.260;2022-08-19T09:50:09;15.20;99.90
44671;DHT22;48397;53.016;-2.260;2022-08-19T09:52:43;17.70;99.90
44671;DHT22;48397;53.016;-2.260;2022-08-19T09:55:24;17.80;99.90
44671;DHT22;48397;53.016;-2.260;2022-08-19T09:58:00;17.80;99.90
44671;DHT22;48397;53.016;-2.260;2022-08-19T10:00:29;17.80;99.90
44671;DHT22;48397;53.016;-2.260;2022-08-19T10:02:58;18.10;99.90
44671;DHT22;48397;53.016;-2.260;2022-08-19T10:05:27;18.30;99.90
44671;DHT22;48397;53.016;-2.260;2022-08-19T10:08:23;18.40;99.90
44671;DHT22;48397;53.016;-2.260;2022-08-19T10:10:54;18.70;99.90
44671;DHT22;48397;53.016;-2.260;2022-08-19T10:13:25;18.70;99.90
44671;DHT22;48397;53.016;-2.260;2022-08-19T10:15:56;18.80;99.90
44671;DHT22;48397;53.016;-2.260;2022-08-19T10:18:24;18.80;99.90
44671;DHT22;48397;53.016;-2.260;2022-08-19T10:21:10;18.70;99.90
44671;DHT22;48397;53.016;-2.260;2022-08-19T10:23:40;18.70;99.90
44671;DHT22;48397;53.016;-2.260;2022-08-19T10:26:19;18.60;99.90
44671;DHT22;48397;53.016;-2.260;2022-08-19T10:28:48;18.60;99.90
44671;DHT22;48397;53.016;-2.260;2022-08-19T10:31:20;18.60;99.90
44671;DHT22;48397;53.016;-2.260;2022-08-19T10:34:08;18.60;99.90
44671;DHT22;48397;53.016;-2.260;2022-08-19T10:36:53;18.70;99.90
44671;DHT22;48397;53.016;-2.260;2022-08-19T10:39:31;18.70;99.90
44671;DHT22;48397;53.016;-2.260;2022-08-19T10:42:10;18.80;99.90
44671;DHT22;48397;53.016;-2.260;2022-08-19T10:44:38;18.80;99.90
44671;DHT22;48397;53.016;-2.260;2022-08-19T10:47:06;19.40;99.90
44671;DHT22;48397;53.016;-2.260;2022-08-19T10:49:52;19.40;99.90
44671;DHT22;48397;53.016;-2.260;2022-08-19T10:52:45;19.30;99.90
44671;DHT22;48397;53.016;-2.260;2022-08-19T10:55:21;19.30;99.90
44671;DHT22;48397;53.016;-2.260;2022-08-19T10:58:18;19.40;99.90
44671;DHT22;48397;53.016;-2.260;2022-08-19T11:00:55;19.50;99.90
44671;DHT22;48397;53.016;-2.260;2022-08-19T11:03:24;19.70;99.90
44671;DHT22;48397;53.016;-2.260;2022-08-19T11:06:04;19.80;99.90
44671;DHT22;48397;53.016;-2.260;2022-08-19T11:08:34;19.90;99.90
44671;DHT22;48397;53.016;-2.260;2022-08-19T11:11:02;19.90;99.90
44671;DHT22;48397;53.016;-2.260;2022-08-19T11:13:32;19.80;99.90
44671;DHT22;48397;53.016;-2.260;2022-08-19T11:16:05;19.90;99.90
44671;DHT22;48397;53.016;-2.260;2022-08-19T11:18:37;19.90;99.90
44671;DHT22;48397;53.016;-2.260;2022-08-19T11:21:14;19.80;99.90
44671;DHT22;48397;53.016;-2.260;2022-08-19T11:23:46;19.80;99.90
44671;DHT22;48397;53.016;-2.260;2022-08-19T11:26:15;19.90;99.90
44671;DHT22;48397;53.016;-2.260;2022-08-19T11:28:43;20.00;99.90
44671;DHT22;48397;53.016;-2.260;2022-08-19T11:31:15;20.10;99.90
44671;DHT22;48397;53.016;-2.260;2022-08-19T11:33:44;20.00;99.90
44671;DHT22;48397;53.016;-2.260;2022-08-19T11:36:14;20.20;99.90
44671;DHT22;48397;53.016;-2.260;2022-08-19T11:38:44;20.10;99.90
44671;DHT22;48397;53.016;-2.260;2022-08-19T11:41:12;20.40;99.90
44671;DHT22;48397;53.016;-2.260;2022-08-19T11:43:40;20.60;99.90
44671;DHT22;48397;53.016;-2.260;2022-08-19T11:46:11;20.60;99.90
44671;DHT22;48397;53.016;-2.260;2022-08-19T11:48:40;20.50;99.90
44671;DHT22;48397;53.016;-2.260;2022-08-19T11:51:10;20.40;99.90
44671;DHT22;48397;53.016;-2.260;2022-08-19T11:53:39;20.40;99.90
44671;DHT22;48397;53.016;-2.260;2022-08-19T11:56:08;20.60;99.90
44671;DHT22;48397;53.016;-2.260;2022-08-19T11:58:37;20.60;99.90
44671;DHT22;48397;53.016;-2.260;2022-08-19T12:01:07;21.00;99.90
44671;DHT22;48397;53.016;-2.260;2022-08-19T12:03:35;21.00;99.90
44671;DHT22;48397;53.016;-2.260;2022-08-19T12:06:10;20.90;99.90
44671;DHT22;48397;53.016;-2.260;2022-08-19T12:08:41;20.90;99.90
44671;DHT22;48397;53.016;-2.260;2022-08-19T12:11:11;20.80;99.90
44671;DHT22;48397;53.016;-2.260;2022-08-19T12:13:39;20.80;99.90
44671;DHT22;48397;53.016;-2.260;2022-08-19T12:16:09;20.70;99.90
44671;DHT22;48397;53.016;-2.260;2022-08-19T12:18:40;20.90;99.90
44671;DHT22;48397;53.016;-2.260;2022-08-19T12:21:15;21.00;99.90
44671;DHT22;48397;53.016;-2.260;2022-08-19T12:23:44;20.90;99.90
44671;DHT22;48397;53.016;-2.260;2022-08-19T12:26:13;20.80;99.90
44671;DHT22;48397;53.016;-2.260;2022-08-19T12:28:41;20.60;99.90
44671;DHT22;48397;53.016;-2.260;2022-08-19T12:31:10;20.50;99.90
44671;DHT22;48397;53.016;-2.260;2022-08-19T12:33:41;20.50;99.90
44671;DHT22;48397;53.016;-2.260;2022-08-19T12:36:12;20.50;99.90
44671;DHT22;48397;53.016;-2.260;2022-08-19T12:38:41;20.50;99.90
44671;DHT22;48397;53.016;-2.260;2022-08-19T12:41:12;20.40;99.90
44671;DHT22;48397;53.016;-2.260;2022-08-19T12:43:41;20.30;99.90
44671;DHT22;48397;53.016;-2.260;2022-08-19T12:46:09;20.20;99.90
44671;DHT22;48397;53.016;-2.260;2022-08-19T12:48:38;20.10;99.90
44671;DHT22;48397;53.016;-2.260;2022-08-19T12:51:12;20.20;99.90
44671;DHT22;48397;53.016;-2.260;2022-08-19T12:53:41;20.30;99.90
44671;DHT22;48397;53.016;-2.260;2022-08-19T12:56:10;20.30;99.90
44671;DHT22;48397;53.016;-2.260;2022-08-19T12:58:39;20.30;99.90
44671;DHT22;48397;53.016;-2.260;2022-08-19T13:01:18;20.30;99.90
44671;DHT22;48397;53.016;-2.260;2022-08-19T13:03:50;20.30;99.90
44671;DHT22;48397;53.016;-2.260;2022-08-19T13:06:20;20.40;99.90
44671;DHT22;48397;53.016;-2.260;2022-08-19T13:08:48;20.40;99.90
44671;DHT22;48397;53.016;-2.260;2022-08-19T13:11:19;20.50;99.90
44671;DHT22;48397;53.016;-2.260;2022-08-19T13:13:48;20.90;99.90
44671;DHT22;48397;53.016;-2.260;2022-08-19T13:16:18;21.50;99.90
44671;DHT22;48397;53.016;-2.260;2022-08-19T13:18:48;22.00;99.90
44671;DHT22;48397;53.016;-2.260;2022-08-19T13:21:15;22.10;99.90
44671;DHT22;48397;53.016;-2.260;2022-08-19T13:23:47;22.70;99.90
44671;DHT22;48397;53.016;-2.260;2022-08-19T13:26:16;23.20;99.90
44671;DHT22;48397;53.016;-2.260;2022-08-19T13:28:45;23.40;97.30
44671;DHT22;48397;53.016;-2.260;2022-08-19T13:31:34;23.10;96.30
44671;DHT22;48397;53.016;-2.260;2022-08-19T13:34:33;22.70;96.60
44671;DHT22;48397;53.016;-2.260;2022-08-19T13:37:03;22.60;96.90
44671;DHT22;48397;53.016;-2.260;2022-08-19T13:39:32;22.80;96.50
44671;DHT22;48397;53.016;-2.260;2022-08-19T13:42:00;23.00;95.70
44671;DHT22;48397;53.016;-2.260;2022-08-19T13:44:29;23.10;95.10
44671;DHT22;48397;53.016;-2.260;2022-08-19T13:47:04;23.10;94.80
44671;DHT22;48397;53.016;-2.260;2022-08-19T13:49:37;22.80;94.30
44671;DHT22;48397;53.016;-2.260;2022-08-19T13:52:05;22.80;94.50
44671;DHT22;48397;53.016;-2.260;2022-08-19T13:54:33;22.90;94.60
44671;DHT22;48397;53.016;-2.260;2022-08-19T13:57:01;23.30;94.10
44671;DHT22;48397;53.016;-2.260;2022-08-19T13:59:28;23.70;93.60
44671;DHT22;48397;53.016;-2.260;2022-08-19T14:02:00;23.70;92.20
44671;DHT22;48397;53.016;-2.260;2022-08-19T14:04:28;23.40;91.80
44671;DHT22;48397;53.016;-2.260;2022-08-19T14:06:56;23.00;92.00
44671;DHT22;48397;53.016;-2.260;2022-08-19T14:09:23;22.70;92.40
44671;DHT22;48397;53.016;-2.260;2022-08-19T14:11:52;22.30;92.50
44671;DHT22;48397;53.016;-2.260;2022-08-19T14:14:20;22.00;92.80
44671;DHT22;48397;53.016;-2.260;2022-08-19T14:16:48;21.80;92.70
44671;DHT22;48397;53.016;-2.260;2022-08-19T14:19:16;21.40;92.60
44671;DHT22;48397;53.016;-2.260;2022-08-19T14:21:44;21.40;92.70
44671;DHT22;48397;53.016;-2.260;2022-08-19T14:24:11;21.10;92.80
44671;DHT22;48397;53.016;-2.260;2022-08-19T14:26:39;21.10;93.00
44671;DHT22;48397;53.016;-2.260;2022-08-19T14:29:07;21.00;93.50
44671;DHT22;48397;53.016;-2.260;2022-08-19T14:31:34;21.40;94.60
44671;DHT22;48397;53.016;-2.260;2022-08-19T14:34:02;22.30;94.10
44671;DHT22;48397;53.016;-2.260;2022-08-19T14:36:29;23.20;92.80
44671;DHT22;48397;53.016;-2.260;2022-08-19T14:39:05;23.90;91.90
44671;DHT22;48397;53.016;-2.260;2022-08-19T14:41:34;24.10;91.50
44671;DHT22;48397;53.016;-2.260;2022-08-19T14:44:02;24.10;91.30
44671;DHT22;48397;53.016;-2.260;2022-08-19T14:46:30;24.00;91.50
44671;DHT22;48397;53.016;-2.260;2022-08-19T14:48:58;24.00;91.60
44671;DHT22;48397;53.016;-2.260;2022-08-19T14:51:26;23.80;91.70
44671;DHT22;48397;53.016;-2.260;2022-08-19T14:53:54;23.70;91.30
44671;DHT22;48397;53.016;-2.260;2022-08-19T14:56:26;23.60;90.90
44671;DHT22;48397;53.016;-2.260;2022-08-19T14:58:55;23.60;91.40
44671;DHT22;48397;53.016;-2.260;2022-08-19T15:01:27;24.10;91.00
44671;DHT22;48397;53.016;-2.260;2022-08-19T15:03:55;24.50;90.90
44671;DHT22;48397;53.016;-2.260;2022-08-19T15:06:24;25.10;90.50
44671;DHT22;48397;53.016;-2.260;2022-08-19T15:08:52;25.50;87.90
44671;DHT22;48397;53.016;-2.260;2022-08-19T15:11:23;25.20;86.50
44671;DHT22;48397;53.016;-2.260;2022-08-19T15:13:51;24.50;87.10
44671;DHT22;48397;53.016;-2.260;2022-08-19T15:16:19;24.20;87.70
44671;DHT22;48397;53.016;-2.260;2022-08-19T15:18:49;24.00;87.50
44671;DHT22;48397;53.016;-2.260;2022-08-19T15:21:18;24.00;87.90
44671;DHT22;48397;53.016;-2.260;2022-08-19T15:23:56;24.30;88.10
44671;DHT22;48397;53.016;-2.260;2022-08-19T15:26:24;24.60;88.30
44671;DHT22;48397;53.016;-2.260;2022-08-19T15:28:55;24.90;88.40
44671;DHT22;48397;53.016;-2.260;2022-08-19T15:31:23;24.80;87.60
44671;DHT22;48397;53.016;-2.260;2022-08-19T15:33:56;24.80;87.50
44671;DHT22;48397;53.016;-2.260;2022-08-19T15:36:26;24.70;87.00
44671;DHT22;48397;53.016;-2.260;2022-08-19T15:38:56;24.50;87.40
44671;DHT22;48397;53.016;-2.260;2022-08-19T15:41:27;23.70;86.90
44671;DHT22;48397;53.016;-2.260;2022-08-19T15:44:06;24.50;87.20
44671;DHT22;48397;53.016;-2.260;2022-08-19T15:46:40;24.00;87.80
44671;DHT22;48397;53.016;-2.260;2022-08-19T15:49:10;23.60;88.20
44671;DHT22;48397;53.016;-2.260;2022-08-19T15:51:40;22.70;88.80
44671;DHT22;48397;53.016;-2.260;2022-08-19T15:54:13;22.40;90.00
44671;DHT22;48397;53.016;-2.260;2022-08-19T15:56:41;22.30;90.10
44671;DHT22;48397;53.016;-2.260;2022-08-19T15:59:38;22.30;90.70
44671;DHT22;48397;53.016;-2.260;2022-08-19T16:02:31;23.00;91.30
44671;DHT22;48397;53.016;-2.260;2022-08-19T16:05:23;24.20;90.10